sensor_id;sensor_type;location;lat;lon;timestamp;temperature;humidity
20143;DHT22;10509;46.476;7.134;2023-08-07T00:01:31;9.20;99.90
20143;DHT22;10509;46.476;7.134;2023-08-07T00:03:56;9.10;99.90
20143;DHT22;10509;46.476;7.134;2023-08-07T00:06:22;9.30;99.90
20143;DHT22;10509;46.476;7.134;2023-08-07T00:08:47;9.20;99.90
20143;DHT22;10509;46.476;7.134;2023-08-07T00:11:13;9.20;99.90
20143;DHT22;10509;46.476;7.134;2023-08-07T00:13:39;9.30;99.90
20143;DHT22;10509;46.476;7.134;2023-08-07T00:16:05;9.30;99.90
20143;DHT22;10509;46.476;7.134;2023-08-07T00:18:30;9.50;99.90
20143;DHT22;10509;46.476;7.134;2023-08-07T00:20:56;9.60;99.90
20143;DHT22;10509;46.476;7.134;2023-08-07T00:23:22;9.70;99.90
20143;DHT22;10509;46.476;7.134;2023-08-07T00:25:47;9.70;99.90
20143;DHT22;10509;46.476;7.134;2023-08-07T00:28:13;9.80;99.90
20143;DHT22;10509;46.476;7.134;2023-08-07T00:30:39;9.60;99.90
20143;DHT22;10509;46.476;7.134;2023-08-07T00:33:04;9.30;99.90
20143;DHT22;10509;46.476;7.134;2023-08-07T00:35:30;9.20;99.90
20143;DHT22;10509;46.476;7.134;2023-08-07T00:37:55;9.30;99.90
20143;DHT22;10509;46.476;7.134;2023-08-07T00:40:21;9.60;99.90
20143;DHT22;10509;46.476;7.134;2023-08-07T00:42:47;9.70;99.90
20143;DHT22;10509;46.476;7.134;2023-08-07T00:45:12;9.70;99.90
20143;DHT22;10509;46.476;7.134;2023-08-07T00:47:38;9.70;99.90
20143;DHT22;10509;46.476;7.134;2023-08-07T00:50:04;9.70;99.90
20143;DHT22;10509;46.476;7.134;2023-08-07T00:52:30;9.60;99.90
20143;DHT22;10509;46.476;7.134;2023-08-07T00:54:57;9.70;99.90
20143;DHT22;10509;46.476;7.134;2023-08-07T00:57:22;9.70;99.90
20143;DHT22;10509;46.476;7.134;2023-08-07T00:59:50;9.80;99.90
20143;DHT22;10509;46.476;7.134;2023-08-07T01:02:15;9.90;99.90
20143;DHT22;10509;46.476;7.134;2023-08-07T01:04:42;9.90;99.90
20143;DHT22;10509;46.476;7.134;2023-08-07T01:07:07;10.00;99.90
20143;DHT22;10509;46.476;7.134;2023-08-07T01:09:33;9.90;99.90
20143;DHT22;10509;46.476;7.134;2023-08-07T01:12:13;9.90;99.90
20143;DHT22;10509;46.476;7.134;2023-08-07T01:15:09;9.80;99.90
20143;DHT22;10509;46.476;7.134;2023-08-07T01:17:39;9.80;99.90
20143;DHT22;10509;46.476;7.134;2023-08-07T01:20:05;9.80;99.90
20143;DHT22;10509;46.476;7.134;2023-08-07T01:22:32;9.80;99.90
20143;DHT22;10509;46.476;7.134;2023-08-07T01:24:57;9.80;99.90
20143;DHT22;10509;46.476;7.134;2023-08-07T01:27:38;9.70;99.90
20143;DHT22;10509;46.476;7.134;2023-08-07T01:35:53;9.90;99.90
20143;DHT22;10509;46.476;7.134;2023-08-07T01:38:22;9.60;99.90
20143;DHT22;10509;46.476;7.134;2023-08-07T01:40:50;9.60;99.90
20143;DHT22;10509;46.476;7.134;2023-08-07T01:43:17;9.50;99.90
20143;DHT22;10509;46.476;7.134;2023-08-07T01:45:44;9.50;99.90
20143;DHT22;10509;46.476;7.134;2023-08-07T01:48:10;9.50;99.90
20143;DHT22;10509;46.476;7.134;2023-08-07T01:50:39;9.50;99.90
20143;DHT22;10509;46.476;7.134;2023-08-07T01:53:05;9.60;99.90
20143;DHT22;10509;46.476;7.134;2023-08-07T01:55:31;9.70;99.90
20143;DHT22;10509;46.476;7.134;2023-08-07T01:57:57;9.90;99.90
20143;DHT22;10509;46.476;7.134;2023-08-07T02:00:23;9.70;99.90
20143;DHT22;10509;46.476;7.134;2023-08-07T02:02:48;9.70;99.90
20143;DHT22;10509;46.476;7.134;2023-08-07T02:05:14;9.50;99.90
20143;DHT22;10509;46.476;7.134;2023-08-07T02:07:40;9.40;99.90
20143;DHT22;10509;46.476;7.134;2023-08-07T02:10:06;9.10;99.90
20143;DHT22;10509;46.476;7.134;2023-08-07T02:12:32;8.80;99.90
20143;DHT22;10509;46.476;7.134;2023-08-07T02:14:59;8.80;99.90
20143;DHT22;10509;46.476;7.134;2023-08-07T02:17:25;8.90;99.90
20143;DHT22;10509;46.476;7.134;2023-08-07T02:19:51;8.80;99.90
20143;DHT22;10509;46.476;7.134;2023-08-07T02:22:16;9.00;99.90
20143;DHT22;10509;46.476;7.134;2023-08-07T02:24:42;9.20;99.90
20143;DHT22;10509;46.476;7.134;2023-08-07T02:27:08;9.40;99.90
20143;DHT22;10509;46.476;7.134;2023-08-07T02:29:33;9.50;99.90
20143;DHT22;10509;46.476;7.134;2023-08-07T02:32:03;9.60;99.90
20143;DHT22;10509;46.476;7.134;2023-08-07T02:34:29;9.70;99.90
20143;DHT22;10509;46.476;7.134;2023-08-07T02:36:55;9.70;99.90
20143;DHT22;10509;46.476;7.134;2023-08-07T02:39:21;9.50;99.90
20143;DHT22;10509;46.476;7.134;2023-08-07T02:41:46;9.50;99.90
20143;DHT22;10509;46.476;7.134;2023-08-07T02:44:12;9.40;99.90
20143;DHT22;10509;46.476;7.134;2023-08-07T02:46:37;9.20;99.90
20143;DHT22;10509;46.476;7.134;2023-08-07T02:49:03;9.30;99.90
20143;DHT22;10509;46.476;7.134;2023-08-07T02:51:30;9.50;99.90
20143;DHT22;10509;46.476;7.134;2023-08-07T02:53:55;9.60;99.90
20143;DHT22;10509;46.476;7.134;2023-08-07T02:56:21;9.70;99.90
20143;DHT22;10509;46.476;7.134;2023-08-07T02:58:47;9.80;99.90
20143;DHT22;10509;46.476;7.134;2023-08-07T03:01:13;9.80;99.90
20143;DHT22;10509;46.476;7.134;2023-08-07T03:03:39;9.70;99.90
20143;DHT22;10509;46.476;7.134;2023-08-07T03:06:04;9.70;99.90
20143;DHT22;10509;46.476;7.134;2023-08-07T03:08:30;9.50;99.90
20143;DHT22;10509;46.476;7.134;2023-08-07T03:10:57;9.40;99.90
20143;DHT22;10509;46.476;7.134;2023-08-07T03:13:24;9.50;99.90
20143;DHT22;10509;46.476;7.134;2023-08-07T03:15:50;9.50;99.90
20143;DHT22;10509;46.476;7.134;2023-08-07T03:18:18;9.50;99.90
20143;DHT22;10509;46.476;7.134;2023-08-07T03:20:44;9.60;99.90
20143;DHT22;10509;46.476;7.134;2023-08-07T03:23:11;9.70;99.90
20143;DHT22;10509;46.476;7.134;2023-08-07T03:25:36;9.80;99.90
20143;DHT22;10509;46.476;7.134;2023-08-07T03:28:02;9.70;99.90
20143;DHT22;10509;46.476;7.134;2023-08-07T03:30:28;9.70;99.90
20143;DHT22;10509;46.476;7.134;2023-08-07T03:32:53;9.70;99.90
20143;DHT22;10509;46.476;7.134;2023-08-07T03:35:19;9.70;99.90
20143;DHT22;10509;46.476;7.134;2023-08-07T03:37:45;9.70;99.90
20143;DHT22;10509;46.476;7.134;2023-08-07T03:40:11;9.80;99.90
20143;DHT22;10509;46.476;7.134;2023-08-07T03:42:36;9.80;99.90
20143;DHT22;10509;46.476;7.134;2023-08-07T03:45:02;9.70;99.90
20143;DHT22;10509;46.476;7.134;2023-08-07T03:47:28;9.70;99.90
20143;DHT22;10509;46.476;7.134;2023-08-07T03:49:53;9.60;99.90
20143;DHT22;10509;46.476;7.134;2023-08-07T03:52:19;9.60;99.90
20143;DHT22;10509;46.476;7.134;2023-08-07T03:54:45;9.70;99.90
20143;DHT22;10509;46.476;7.134;2023-08-07T03:57:10;9.50;99.90
20143;DHT22;10509;46.476;7.134;2023-08-07T03:59:36;9.60;99.90
20143;DHT22;10509;46.476;7.134;2023-08-07T04:02:02;9.60;99.90
20143;DHT22;10509;46.476;7.134;2023-08-07T04:04:28;9.60;99.90
20143;DHT22;10509;46.476;7.134;2023-08-07T04:06:53;9.60;99.90
20143;DHT22;10509;46.476;7.134;2023-08-07T04:09:19;9.70;99.90
20143;DHT22;10509;46.476;7.134;2023-08-07T04:11:45;9.70;99.90
20143;DHT22;10509;46.476;7.134;2023-08-07T04:14:10;9.50;99.90
20143;DHT22;10509;46.476;7.134;2023-08-07T04:16:36;9.60;99.90
20143;DHT22;10509;46.476;7.134;2023-08-07T04:19:03;9.60;99.90
20143;DHT22;10509;46.476;7.134;2023-08-07T04:21:30;9.20;99.90
20143;DHT22;10509;46.476;7.134;2023-08-07T04:23:55;9.30;99.90
20143;DHT22;10509;46.476;7.134;2023-08-07T04:26:21;9.00;99.90
20143;DHT22;10509;46.476;7.134;2023-08-07T04:28:47;9.00;99.90
20143;DHT22;10509;46.476;7.134;2023-08-07T04:31:12;9.10;99.90
20143;DHT22;10509;46.476;7.134;2023-08-07T04:33:38;9.30;99.90
20143;DHT22;10509;46.476;7.134;2023-08-07T04:36:04;9.40;99.90
20143;DHT22;10509;46.476;7.134;2023-08-07T04:38:30;9.40;99.90
20143;DHT22;10509;46.476;7.134;2023-08-07T04:40:55;9.50;99.90
20143;DHT22;10509;46.476;7.134;2023-08-07T04:43:21;9.30;99.90
20143;DHT22;10509;46.476;7.134;2023-08-07T04:45:47;9.30;99.90
20143;DHT22;10509;46.476;7.134;2023-08-07T04:48:14;9.40;99.90
20143;DHT22;10509;46.476;7.134;2023-08-07T04:50:40;9.50;99.90
20143;DHT22;10509;46.476;7.134;2023-08-07T04:53:06;9.50;99.90
20143;DHT22;10509;46.476;7.134;2023-08-07T04:55:32;9.60;99.90
20143;DHT22;10509;46.476;7.134;2023-08-07T04:57:58;9.70;99.90
20143;DHT22;10509;46.476;7.134;2023-08-07T05:00:24;9.60;99.90
20143;DHT22;10509;46.476;7.134;2023-08-07T05:02:49;9.20;99.90
20143;DHT22;10509;46.476;7.134;2023-08-07T05:05:16;9.40;99.90
20143;DHT22;10509;46.476;7.134;2023-08-07T05:07:41;9.30;99.90
20143;DHT22;10509;46.476;7.134;2023-08-07T05:10:09;9.30;99.90
20143;DHT22;10509;46.476;7.134;2023-08-07T05:12:35;9.00;99.90
20143;DHT22;10509;46.476;7.134;2023-08-07T05:15:00;8.80;99.90
20143;DHT22;10509;46.476;7.134;2023-08-07T05:17:26;9.10;99.90
20143;DHT22;10509;46.476;7.134;2023-08-07T05:19:52;9.20;99.90
20143;DHT22;10509;46.476;7.134;2023-08-07T05:22:17;9.40;99.90
20143;DHT22;10509;46.476;7.134;2023-08-07T05:24:43;9.50;99.90
20143;DHT22;10509;46.476;7.134;2023-08-07T05:27:10;9.60;99.90
20143;DHT22;10509;46.476;7.134;2023-08-07T05:29:36;9.40;99.90
20143;DHT22;10509;46.476;7.134;2023-08-07T05:32:09;9.30;99.90
20143;DHT22;10509;46.476;7.134;2023-08-07T05:34:35;9.00;99.90
20143;DHT22;10509;46.476;7.134;2023-08-07T05:37:01;9.10;99.90
20143;DHT22;10509;46.476;7.134;2023-08-07T05:39:26;9.30;99.90
20143;DHT22;10509;46.476;7.134;2023-08-07T05:41:52;9.60;99.90
20143;DHT22;10509;46.476;7.134;2023-08-07T05:44:20;9.60;99.90
20143;DHT22;10509;46.476;7.134;2023-08-07T05:46:45;9.60;99.90
20143;DHT22;10509;46.476;7.134;2023-08-07T05:49:11;10.80;99.90
20143;DHT22;10509;46.476;7.134;2023-08-07T05:51:36;12.50;99.90
20143;DHT22;10509;46.476;7.134;2023-08-07T05:54:02;14.80;99.90
20143;DHT22;10509;46.476;7.134;2023-08-07T05:56:28;14.30;99.90
20143;DHT22;10509;46.476;7.134;2023-08-07T05:58:53;13.60;99.90
20143;DHT22;10509;46.476;7.134;2023-08-07T06:01:19;14.20;99.90
20143;DHT22;10509;46.476;7.134;2023-08-07T06:03:44;13.80;99.90
20143;DHT22;10509;46.476;7.134;2023-08-07T06:06:10;13.40;99.90
20143;DHT22;10509;46.476;7.134;2023-08-07T06:08:36;13.00;99.90
20143;DHT22;10509;46.476;7.134;2023-08-07T06:11:01;12.60;99.90
20143;DHT22;10509;46.476;7.134;2023-08-07T06:13:33;11.80;99.90
20143;DHT22;10509;46.476;7.134;2023-08-07T06:15:59;11.60;99.90
20143;DHT22;10509;46.476;7.134;2023-08-07T06:18:25;11.20;99.90
20143;DHT22;10509;46.476;7.134;2023-08-07T06:20:50;11.20;99.90
20143;DHT22;10509;46.476;7.134;2023-08-07T06:23:16;11.40;99.90
20143;DHT22;10509;46.476;7.134;2023-08-07T06:25:42;11.40;99.90
20143;DHT22;10509;46.476;7.134;2023-08-07T06:28:08;11.20;99.90
20143;DHT22;10509;46.476;7.134;2023-08-07T06:30:34;11.20;99.90
20143;DHT22;10509;46.476;7.134;2023-08-07T06:32:59;11.20;99.90
20143;DHT22;10509;46.476;7.134;2023-08-07T06:35:25;10.90;99.90
20143;DHT22;10509;46.476;7.134;2023-08-07T06:37:50;10.30;99.90
20143;DHT22;10509;46.476;7.134;2023-08-07T06:40:16;9.90;99.90
20143;DHT22;10509;46.476;7.134;2023-08-07T06:42:42;9.80;99.90
20143;DHT22;10509;46.476;7.134;2023-08-07T06:45:08;9.90;99.90
20143;DHT22;10509;46.476;7.134;2023-08-07T06:47:33;9.90;99.90
20143;DHT22;10509;46.476;7.134;2023-08-07T06:49:59;10.10;99.90
20143;DHT22;10509;46.476;7.134;2023-08-07T06:52:25;10.40;99.90
20143;DHT22;10509;46.476;7.134;2023-08-07T06:54:51;10.30;99.90
20143;DHT22;10509;46.476;7.134;2023-08-07T06:57:17;10.30;99.90
20143;DHT22;10509;46.476;7.134;2023-08-07T06:59:43;10.30;99.90
20143;DHT22;10509;46.476;7.134;2023-08-07T07:02:09;10.10;99.90
20143;DHT22;10509;46.476;7.134;2023-08-07T07:04:35;9.70;99.90
20143;DHT22;10509;46.476;7.134;2023-08-07T07:07:02;9.90;99.90
20143;DHT22;10509;46.476;7.134;2023-08-07T07:09:27;9.60;99.90
20143;DHT22;10509;46.476;7.134;2023-08-07T07:11:54;9.50;99.90
20143;DHT22;10509;46.476;7.134;2023-08-07T07:14:21;9.80;99.90
20143;DHT22;10509;46.476;7.134;2023-08-07T07:16:47;10.30;99.90
20143;DHT22;10509;46.476;7.134;2023-08-07T07:19:12;10.00;99.90
20143;DHT22;10509;46.476;7.134;2023-08-07T07:21:38;10.40;99.90
20143;DHT22;10509;46.476;7.134;2023-08-07T07:24:04;10.90;99.90
20143;DHT22;10509;46.476;7.134;2023-08-07T07:26:30;10.90;99.90
20143;DHT22;10509;46.476;7.134;2023-08-07T07:28:56;11.20;99.90
20143;DHT22;10509;46.476;7.134;2023-08-07T07:31:22;11.20;99.90
20143;DHT22;10509;46.476;7.134;2023-08-07T07:33:48;11.40;99.90
20143;DHT22;10509;46.476;7.134;2023-08-07T07:36:18;12.00;99.90
20143;DHT22;10509;46.476;7.134;2023-08-07T07:38:45;12.70;99.90
20143;DHT22;10509;46.476;7.134;2023-08-07T07:41:13;16.60;99.90
20143;DHT22;10509;46.476;7.134;2023-08-07T07:43:39;17.10;99.90
20143;DHT22;10509;46.476;7.134;2023-08-07T07:46:04;16.40;99.90
20143;DHT22;10509;46.476;7.134;2023-08-07T07:48:30;15.80;99.90
20143;DHT22;10509;46.476;7.134;2023-08-07T07:51:00;15.60;99.90
20143;DHT22;10509;46.476;7.134;2023-08-07T07:53:26;16.40;99.90
20143;DHT22;10509;46.476;7.134;2023-08-07T07:55:51;16.40;99.90
20143;DHT22;10509;46.476;7.134;2023-08-07T07:58:17;16.30;99.90
20143;DHT22;10509;46.476;7.134;2023-08-07T08:00:42;16.10;99.90
20143;DHT22;10509;46.476;7.134;2023-08-07T08:03:08;16.20;99.90
20143;DHT22;10509;46.476;7.134;2023-08-07T08:05:34;16.10;99.90
20143;DHT22;10509;46.476;7.134;2023-08-07T08:08:00;15.90;99.90
20143;DHT22;10509;46.476;7.134;2023-08-07T08:10:27;15.70;99.90
20143;DHT22;10509;46.476;7.134;2023-08-07T08:12:55;15.80;99.90
20143;DHT22;10509;46.476;7.134;2023-08-07T08:15:21;15.70;99.90
20143;DHT22;10509;46.476;7.134;2023-08-07T08:17:47;15.80;99.90
20143;DHT22;10509;46.476;7.134;2023-08-07T08:20:12;15.70;99.90
20143;DHT22;10509;46.476;7.134;2023-08-07T08:22:43;15.80;99.90
20143;DHT22;10509;46.476;7.134;2023-08-07T08:25:09;16.10;99.90
20143;DHT22;10509;46.476;7.134;2023-08-07T08:27:40;16.50;99.90
20143;DHT22;10509;46.476;7.134;2023-08-07T08:30:06;17.50;99.90
20143;DHT22;10509;46.476;7.134;2023-08-07T08:32:32;18.10;99.90
20143;DHT22;10509;46.476;7.134;2023-08-07T08:34:58;18.00;99.90
20143;DHT22;10509;46.476;7.134;2023-08-07T08:37:24;18.40;99.90
20143;DHT22;10509;46.476;7.134;2023-08-07T08:39:49;19.40;99.90
20143;DHT22;10509;46.476;7.134;2023-08-07T08:42:15;19.70;99.90
20143;DHT22;10509;46.476;7.134;2023-08-07T08:44:48;20.80;99.90
20143;DHT22;10509;46.476;7.134;2023-08-07T08:47:16;22.70;99.70
20143;DHT22;10509;46.476;7.134;2023-08-07T08:50:08;25.30;95.40
20143;DHT22;10509;46.476;7.134;2023-08-07T08:52:37;23.70;92.80
20143;DHT22;10509;46.476;7.134;2023-08-07T08:55:04;23.50;93.60
20143;DHT22;10509;46.476;7.134;2023-08-07T08:57:30;23.80;91.00
20143;DHT22;10509;46.476;7.134;2023-08-07T08:59:58;22.70;86.60
20143;DHT22;10509;46.476;7.134;2023-08-07T09:02:25;21.90;90.60
20143;DHT22;10509;46.476;7.134;2023-08-07T09:07:20;21.50;92.70
20143;DHT22;10509;46.476;7.134;2023-08-07T09:09:46;21.80;92.20
20143;DHT22;10509;46.476;7.134;2023-08-07T09:12:20;21.90;92.40
20143;DHT22;10509;46.476;7.134;2023-08-07T09:14:52;22.70;92.00
20143;DHT22;10509;46.476;7.134;2023-08-07T09:17:23;21.80;90.80
20143;DHT22;10509;46.476;7.134;2023-08-07T09:27:08;21.00;92.40
20143;DHT22;10509;46.476;7.134;2023-08-07T09:29:33;20.90;92.70
20143;DHT22;10509;46.476;7.134;2023-08-07T09:39:25;20.60;91.90
20143;DHT22;10509;46.476;7.134;2023-08-07T09:41:52;20.50;92.00
20143;DHT22;10509;46.476;7.134;2023-08-07T09:51:47;21.90;88.40
20143;DHT22;10509;46.476;7.134;2023-08-07T09:56:46;21.80;88.60
20143;DHT22;10509;46.476;7.134;2023-08-07T10:01:40;21.80;89.40
20143;DHT22;10509;46.476;7.134;2023-08-07T10:11:33;19.20;87.50
20143;DHT22;10509;46.476;7.134;2023-08-07T15:15:13;17.80;86.70
20143;DHT22;10509;46.476;7.134;2023-08-07T15:17:39;17.80;87.00
20143;DHT22;10509;46.476;7.134;2023-08-07T15:20:05;17.90;87.40
20143;DHT22;10509;46.476;7.134;2023-08-07T15:22:30;18.10;88.70
20143;DHT22;10509;46.476;7.134;2023-08-07T15:24:56;18.10;88.50
20143;DHT22;10509;46.476;7.134;2023-08-07T15:27:22;18.10;89.50
20143;DHT22;10509;46.476;7.134;2023-08-07T15:29:47;18.20;87.70
20143;DHT22;10509;46.476;7.134;2023-08-07T15:32:13;18.30;89.40
20143;DHT22;10509;46.476;7.134;2023-08-07T15:34:39;18.30;90.10
20143;DHT22;10509;46.476;7.134;2023-08-07T15:37:05;18.40;89.40
20143;DHT22;10509;46.476;7.134;2023-08-07T15:39:31;18.30;89.20
20143;DHT22;10509;46.476;7.134;2023-08-07T15:41:57;18.30;90.00
20143;DHT22;10509;46.476;7.134;2023-08-07T15:44:22;18.20;90.30
20143;DHT22;10509;46.476;7.134;2023-08-07T15:46:48;18.30;91.30
20143;DHT22;10509;46.476;7.134;2023-08-07T15:49:13;18.50;90.90
20143;DHT22;10509;46.476;7.134;2023-08-07T15:51:39;18.40;91.20
20143;DHT22;10509;46.476;7.134;2023-08-07T15:54:05;18.50;91.70
20143;DHT22;10509;46.476;7.134;2023-08-07T15:56:30;18.60;91.40
20143;DHT22;10509;46.476;7.134;2023-08-07T15:58:56;18.60;90.70
20143;DHT22;10509;46.476;7.134;2023-08-07T16:01:22;18.70;90.70
20143;DHT22;10509;46.476;7.134;2023-08-07T16:03:48;18.70;90.20
20143;DHT22;10509;46.476;7.134;2023-08-07T16:06:13;18.70;90.10
20143;DHT22;10509;46.476;7.134;2023-08-07T16:08:39;18.70;90.00
20143;DHT22;10509;46.476;7.134;2023-08-07T16:11:04;18.60;90.10
20143;DHT22;10509;46.476;7.134;2023-08-07T16:13:30;18.60;90.10
20143;DHT22;10509;46.476;7.134;2023-08-07T16:15:56;18.60;88.90
20143;DHT22;10509;46.476;7.134;2023-08-07T16:18:22;18.50;89.20
20143;DHT22;10509;46.476;7.134;2023-08-07T16:20:48;18.50;88.90
20143;DHT22;10509;46.476;7.134;2023-08-07T16:23:13;18.50;88.20
20143;DHT22;10509;46.476;7.134;2023-08-07T16:25:39;18.40;87.70
20143;DHT22;10509;46.476;7.134;2023-08-07T16:28:05;18.30;89.40
20143;DHT22;10509;46.476;7.134;2023-08-07T16:30:30;18.30;89.50
20143;DHT22;10509;46.476;7.134;2023-08-07T16:32:56;18.30;90.80
20143;DHT22;10509;46.476;7.134;2023-08-07T16:35:22;18.30;91.10
20143;DHT22;10509;46.476;7.134;2023-08-07T16:37:48;18.30;91.40
20143;DHT22;10509;46.476;7.134;2023-08-07T16:40:13;18.40;91.60
20143;DHT22;10509;46.476;7.134;2023-08-07T16:42:39;18.40;91.60
20143;DHT22;10509;46.476;7.134;2023-08-07T16:45:05;18.20;91.50
20143;DHT22;10509;46.476;7.134;2023-08-07T16:47:31;18.10;92.00
20143;DHT22;10509;46.476;7.134;2023-08-07T16:49:56;18.20;92.20
20143;DHT22;10509;46.476;7.134;2023-08-07T16:52:24;18.20;92.30
20143;DHT22;10509;46.476;7.134;2023-08-07T16:54:50;18.20;92.30
20143;DHT22;10509;46.476;7.134;2023-08-07T16:57:19;18.20;92.50
20143;DHT22;10509;46.476;7.134;2023-08-07T16:59:44;18.30;92.60
20143;DHT22;10509;46.476;7.134;2023-08-07T17:02:11;18.30;93.10
20143;DHT22;10509;46.476;7.134;2023-08-07T17:04:36;18.20;93.20
20143;DHT22;10509;46.476;7.134;2023-08-07T17:07:04;18.10;92.70
20143;DHT22;10509;46.476;7.134;2023-08-07T17:09:29;18.00;93.00
20143;DHT22;10509;46.476;7.134;2023-08-07T17:11:55;17.80;93.10
20143;DHT22;10509;46.476;7.134;2023-08-07T17:14:21;17.50;93.60
20143;DHT22;10509;46.476;7.134;2023-08-07T17:16:46;17.20;93.80
20143;DHT22;10509;46.476;7.134;2023-08-07T17:19:12;17.10;94.40
20143;DHT22;10509;46.476;7.134;2023-08-07T17:21:37;17.00;94.80
20143;DHT22;10509;46.476;7.134;2023-08-07T17:24:03;16.80;95.00
20143;DHT22;10509;46.476;7.134;2023-08-07T17:26:29;16.70;95.20
20143;DHT22;10509;46.476;7.134;2023-08-07T17:28:56;16.60;95.40
20143;DHT22;10509;46.476;7.134;2023-08-07T17:31:23;16.50;95.70
20143;DHT22;10509;46.476;7.134;2023-08-07T17:33:49;16.30;95.90
20143;DHT22;10509;46.476;7.134;2023-08-07T17:36:14;15.50;96.30
20143;DHT22;10509;46.476;7.134;2023-08-07T17:38:40;15.40;96.80
20143;DHT22;10509;46.476;7.134;2023-08-07T17:41:06;15.30;97.00
20143;DHT22;10509;46.476;7.134;2023-08-07T17:43:31;15.30;97.10
20143;DHT22;10509;46.476;7.134;2023-08-07T17:45:57;15.30;97.60
20143;DHT22;10509;46.476;7.134;2023-08-07T17:48:22;15.20;97.40
20143;DHT22;10509;46.476;7.134;2023-08-07T17:50:48;15.30;97.70
20143;DHT22;10509;46.476;7.134;2023-08-07T17:53:14;15.30;98.10
20143;DHT22;10509;46.476;7.134;2023-08-07T17:55:39;15.40;98.00
20143;DHT22;10509;46.476;7.134;2023-08-07T17:58:05;15.30;98.00
20143;DHT22;10509;46.476;7.134;2023-08-07T18:00:30;15.20;98.20
20143;DHT22;10509;46.476;7.134;2023-08-07T18:02:56;15.00;98.40
20143;DHT22;10509;46.476;7.134;2023-08-07T18:05:22;14.80;98.90
20143;DHT22;10509;46.476;7.134;2023-08-07T18:07:48;14.90;99.00
20143;DHT22;10509;46.476;7.134;2023-08-07T18:10:13;14.90;99.20
20143;DHT22;10509;46.476;7.134;2023-08-07T18:12:39;14.90;99.20
20143;DHT22;10509;46.476;7.134;2023-08-07T18:15:05;14.90;99.10
20143;DHT22;10509;46.476;7.134;2023-08-07T18:17:31;14.90;99.10
20143;DHT22;10509;46.476;7.134;2023-08-07T18:19:58;15.00;99.00
20143;DHT22;10509;46.476;7.134;2023-08-07T18:22:23;15.00;99.00
20143;DHT22;10509;46.476;7.134;2023-08-07T18:24:49;14.90;99.10
20143;DHT22;10509;46.476;7.134;2023-08-07T18:27:15;14.80;99.40
20143;DHT22;10509;46.476;7.134;2023-08-07T18:29:43;14.80;99.90
20143;DHT22;10509;46.476;7.134;2023-08-07T18:32:09;14.60;99.90
20143;DHT22;10509;46.476;7.134;2023-08-07T18:34:35;14.50;99.90
20143;DHT22;10509;46.476;7.134;2023-08-07T18:37:00;14.50;99.90
20143;DHT22;10509;46.476;7.134;2023-08-07T18:39:26;14.40;99.90
20143;DHT22;10509;46.476;7.134;2023-08-07T18:41:52;14.40;99.90
20143;DHT22;10509;46.476;7.134;2023-08-07T18:44:18;14.40;99.90
20143;DHT22;10509;46.476;7.134;2023-08-07T18:46:44;14.30;99.90
20143;DHT22;10509;46.476;7.134;2023-08-07T18:49:10;14.10;99.90
20143;DHT22;10509;46.476;7.134;2023-08-07T18:51:36;14.00;99.90
20143;DHT22;10509;46.476;7.134;2023-08-07T18:54:02;13.80;99.90
20143;DHT22;10509;46.476;7.134;2023-08-07T18:56:27;13.50;99.90
20143;DHT22;10509;46.476;7.134;2023-08-07T18:58:54;13.50;99.90
20143;DHT22;10509;46.476;7.134;2023-08-07T19:01:19;13.40;99.90
20143;DHT22;10509;46.476;7.134;2023-08-07T19:03:45;13.30;99.90
20143;DHT22;10509;46.476;7.134;2023-08-07T19:06:11;13.40;99.90
20143;DHT22;10509;46.476;7.134;2023-08-07T19:08:38;13.20;99.90
20143;DHT22;10509;46.476;7.134;2023-08-07T19:11:04;13.10;99.90
20143;DHT22;10509;46.476;7.134;2023-08-07T19:13:29;13.00;99.90
20143;DHT22;10509;46.476;7.134;2023-08-07T19:15:56;13.10;99.90
20143;DHT22;10509;46.476;7.134;2023-08-07T19:18:22;13.00;99.90
20143;DHT22;10509;46.476;7.134;2023-08-07T19:20:48;12.90;99.90
20143;DHT22;10509;46.476;7.134;2023-08-07T19:23:13;12.70;99.90
20143;DHT22;10509;46.476;7.134;2023-08-07T19:25:42;12.50;99.90
20143;DHT22;10509;46.476;7.134;2023-08-07T19:28:08;12.50;99.90
20143;DHT22;10509;46.476;7.134;2023-08-07T19:30:34;12.70;99.90
20143;DHT22;10509;46.476;7.134;2023-08-07T19:33:00;12.80;99.90
20143;DHT22;10509;46.476;7.134;2023-08-07T19:35:26;12.70;99.90
20143;DHT22;10509;46.476;7.134;2023-08-07T19:37:51;12.80;99.90
20143;DHT22;10509;46.476;7.134;2023-08-07T19:40:17;12.80;99.90
20143;DHT22;10509;46.476;7.134;2023-08-07T19:42:52;12.70;99.90
20143;DHT22;10509;46.476;7.134;2023-08-07T19:45:18;12.70;99.90
20143;DHT22;10509;46.476;7.134;2023-08-07T19:47:45;12.60;99.90
20143;DHT22;10509;46.476;7.134;2023-08-07T19:50:11;12.40;99.90
20143;DHT22;10509;46.476;7.134;2023-08-07T19:52:37;12.30;99.90
20143;DHT22;10509;46.476;7.134;2023-08-07T19:55:03;12.30;99.90
